Time;durP1;ratioP1;P1;durP2;ratioP2;P2;SDS_P1;SDS_P2;PMS_P1;PMS_P2;Temp;Humidity;BMP_temperature;BMP_pressure;BME280_temperature;BME280_humidity;BME280_pressure;Samples;Min_cycle;Max_cycle;Signal;HPM_P1;HPM_P2
2021/12/10 00:01:42;;;;;;;11.45;4.18;;;0.30;99.90;;;;;;4861519;29;20146;-88
2021/12/10 00:04:34;;;;;;;14.07;4.40;;;0.30;99.90;;;;;;4886260;29;20108;-88
2021/12/10 00:07:24;;;;;;;19.60;4.65;;;0.30;99.90;;;;;;4888443;29;20093;-88
2021/12/10 00:10:15;;;;;;;13.40;4.53;;;0.20;99.90;;;;;;4868877;29;20046;-86
2021/12/10 00:13:04;;;;;;;16.33;3.90;;;0.20;99.90;;;;;;4881457;29;20056;-87
2021/12/10 00:15:55;;;;;;;8.73;3.65;;;0.20;99.90;;;;;;4873770;29;20128;-88
2021/12/10 00:18:50;;;;;;;11.85;4.00;;;0.10;99.90;;;;;;4870675;29;20065;-88
2021/12/10 00:21:38;;;;;;;14.77;4.32;;;0.10;99.90;;;;;;4869234;29;20502;-89
2021/12/10 00:24:31;;;;;;;13.05;4.57;;;0.10;99.90;;;;;;4866334;29;20180;-87
2021/12/10 00:27:31;;;;;;;11.85;4.00;;;0.00;99.90;;;;;;4865637;29;20042;-88
2021/12/10 00:30:27;;;;;;;20.80;5.07;;;0.00;99.90;;;;;;4866714;29;20053;-89
2021/12/10 00:33:21;;;;;;;8.02;3.50;;;-0.10;99.90;;;;;;4878104;29;20370;-87
2021/12/10 00:36:09;;;;;;;12.95;4.03;;;-0.10;99.90;;;;;;4867307;29;20068;-87
2021/12/10 00:38:59;;;;;;;11.15;4.10;;;-0.10;99.90;;;;;;4876712;29;20053;-88
2021/12/10 00:41:47;;;;;;;14.35;4.03;;;-0.10;99.90;;;;;;4864416;29;20045;-89
2021/12/10 00:44:34;;;;;;;12.70;4.13;;;-0.20;99.90;;;;;;4868545;29;20049;-88
2021/12/10 00:47:24;;;;;;;11.50;3.55;;;-0.20;99.90;;;;;;4869804;29;20903;-87
2021/12/10 00:50:19;;;;;;;12.82;3.85;;;-0.20;99.90;;;;;;4866410;29;20052;-88
2021/12/10 00:53:07;;;;;;;11.05;3.65;;;-0.30;99.90;;;;;;4864417;29;20520;-87
2021/12/10 00:55:58;;;;;;;16.02;4.32;;;-0.30;99.90;;;;;;4878951;29;20067;-87
2021/12/10 00:58:46;;;;;;;15.50;4.15;;;-0.50;99.90;;;;;;4852988;29;20085;-88
2021/12/10 01:01:33;;;;;;;15.70;4.18;;;-0.50;99.90;;;;;;4853137;29;20368;-87
2021/12/10 01:04:27;;;;;;;9.35;3.67;;;-0.50;99.90;;;;;;4852625;29;20120;-85
2021/12/10 01:07:18;;;;;;;8.02;3.58;;;-0.60;99.90;;;;;;4865073;29;20131;-87
2021/12/10 01:10:30;;;;;;;8.32;3.72;;;-0.60;99.90;;;;;;4860201;29;20061;-87
2021/12/10 01:13:25;;;;;;;17.65;3.58;;;-0.60;99.90;;;;;;4862621;29;20037;-86
2021/12/10 01:23:47;;;;;;;9.77;4.55;;;-0.70;99.90;;;;;;4858658;29;20121;-89
2021/12/10 01:25:54;;;;;;;10.18;3.85;;;-1.00;99.90;;;;;;4856605;29;20056;-90
2021/12/10 01:28:45;;;;;;;12.15;4.20;;;-1.00;99.90;;;;;;4846912;29;20054;-88
2021/12/10 01:31:36;;;;;;;19.33;3.40;;;-1.00;99.90;;;;;;4860551;29;20061;-88
2021/12/10 01:34:24;;;;;;;13.07;3.55;;;-0.90;99.90;;;;;;4872064;29;20462;-87
2021/12/10 01:37:12;;;;;;;14.85;3.60;;;-0.90;99.90;;;;;;4861420;29;20057;-87
2021/12/10 01:40:00;;;;;;;10.52;3.47;;;-0.80;99.90;;;;;;4847284;29;20060;-88
2021/12/10 01:42:52;;;;;;;19.73;4.03;;;-0.70;99.90;;;;;;4865952;29;20057;-87
2021/12/10 01:45:48;;;;;;;13.77;3.40;;;-0.70;99.90;;;;;;4865508;29;20344;-87
2021/12/10 01:48:47;;;;;;;10.55;2.90;;;-0.70;99.90;;;;;;4848583;29;20464;-87
2021/12/10 01:51:41;;;;;;;18.75;3.70;;;-0.70;99.90;;;;;;4859021;29;20065;-86
2021/12/10 01:54:39;;;;;;;13.77;3.05;;;-0.70;99.90;;;;;;4851888;29;20054;-86
2021/12/10 01:57:30;;;;;;;9.20;2.83;;;-0.80;99.90;;;;;;4854142;29;20053;-88
2021/12/10 02:00:25;;;;;;;5.13;2.47;;;-0.80;99.90;;;;;;4863976;29;20077;-87
2021/12/10 02:03:16;;;;;;;11.13;2.92;;;-0.90;99.90;;;;;;4864744;29;20049;-88
2021/12/10 02:06:08;;;;;;;9.05;2.80;;;-1.00;99.90;;;;;;4857308;29;20075;-89
2021/12/10 02:08:56;;;;;;;12.13;3.15;;;-0.90;99.90;;;;;;4862638;29;20045;-87
2021/12/10 02:11:45;;;;;;;8.02;3.20;;;-0.80;99.90;;;;;;4864043;29;20041;-87
2021/12/10 02:14:33;;;;;;;8.18;3.10;;;-0.80;99.90;;;;;;4882618;29;20046;-86
2021/12/10 02:17:24;;;;;;;9.35;2.80;;;-0.70;99.90;;;;;;4862649;29;20140;-90
2021/12/10 02:20:23;;;;;;;8.25;2.47;;;-0.70;99.90;;;;;;4862328;29;20054;-86
2021/12/10 02:23:11;;;;;;;14.45;2.92;;;-0.80;99.90;;;;;;4859296;29;20344;-87
2021/12/10 02:26:01;;;;;;;8.38;2.67;;;-0.80;99.90;;;;;;4869294;29;20053;-86
2021/12/10 02:28:48;;;;;;;10.75;2.75;;;-0.80;99.90;;;;;;4862140;29;20049;-88
2021/12/10 02:31:36;;;;;;;7.82;2.63;;;-0.80;99.90;;;;;;4850305;29;20053;-84
2021/12/10 02:34:26;;;;;;;6.68;2.55;;;-0.90;99.90;;;;;;4859346;29;20056;-87
2021/12/10 02:37:13;;;;;;;9.23;2.80;;;-1.00;99.90;;;;;;4861826;29;20076;-85
2021/12/10 02:40:02;;;;;;;17.98;3.88;;;-1.10;99.90;;;;;;4859359;29;20371;-87
2021/12/10 02:42:51;;;;;;;10.07;3.08;;;-1.20;99.90;;;;;;4864611;29;20049;-86
2021/12/10 02:45:42;;;;;;;9.05;3.15;;;-1.30;99.90;;;;;;4862423;29;20053;-87
2021/12/10 02:48:30;;;;;;;7.10;3.08;;;-1.30;99.90;;;;;;4865239;29;20050;-85
2021/12/10 02:51:18;;;;;;;11.85;3.20;;;-1.50;99.90;;;;;;4862758;29;20080;-87
2021/12/10 02:54:10;;;;;;;17.42;3.60;;;-1.60;99.90;;;;;;4865996;29;20409;-86
2021/12/10 02:57:03;;;;;;;10.95;3.30;;;-1.70;99.90;;;;;;4874911;29;20477;-87
2021/12/10 02:59:51;;;;;;;8.17;3.07;;;-1.70;99.90;;;;;;4861165;29;20057;-89
2021/12/10 03:02:39;;;;;;;7.88;3.30;;;-1.70;99.90;;;;;;4868493;29;20641;-87
2021/12/10 03:05:27;;;;;;;9.38;3.95;;;-1.70;99.90;;;;;;4859667;29;20435;-88
2021/12/10 03:08:17;;;;;;;9.90;3.58;;;-1.80;99.90;;;;;;4861985;29;20170;-89
2021/12/10 03:11:06;;;;;;;12.55;3.53;;;-1.80;99.90;;;;;;4863982;29;20057;-89
2021/12/10 03:13:53;;;;;;;10.88;3.42;;;-1.80;99.90;;;;;;4865166;29;20479;-88
2021/12/10 03:16:44;;;;;;;14.77;4.15;;;-1.80;99.90;;;;;;4849009;29;20049;-89
2021/12/10 03:19:37;;;;;;;10.85;4.07;;;-1.90;99.90;;;;;;4849827;29;20460;-89
2021/12/10 03:22:26;;;;;;;12.30;3.47;;;-1.80;99.90;;;;;;4850226;29;20458;-87
2021/12/10 03:25:18;;;;;;;13.10;3.47;;;-1.80;99.90;;;;;;4874261;29;20053;-87
2021/12/10 03:28:06;;;;;;;14.48;3.55;;;-1.90;99.90;;;;;;4874293;29;20502;-88
2021/12/10 03:30:55;;;;;;;11.25;3.70;;;-1.90;99.90;;;;;;4873368;29;20052;-88
2021/12/10 03:33:42;;;;;;;11.68;3.90;;;-2.00;99.90;;;;;;4848983;29;20376;-88
2021/12/10 03:36:33;;;;;;;12.35;4.32;;;-2.00;99.90;;;;;;4848470;29;20060;-88
2021/12/10 03:39:24;;;;;;;15.50;4.55;;;-2.00;99.90;;;;;;4873693;29;20049;-87
2021/12/10 03:42:11;;;;;;;9.82;3.75;;;-2.00;99.90;;;;;;4860765;29;20100;-87
2021/12/10 03:45:00;;;;;;;10.98;5.05;;;-2.10;99.90;;;;;;4862604;29;20456;-88
2021/12/10 03:47:48;;;;;;;19.75;5.28;;;-2.10;99.90;;;;;;4864262;29;20057;-86
2021/12/10 03:50:36;;;;;;;13.82;4.75;;;-2.10;99.90;;;;;;4886704;29;20394;-88
2021/12/10 03:53:24;;;;;;;16.95;5.57;;;-2.10;99.90;;;;;;4860338;29;20048;-88
2021/12/10 03:56:16;;;;;;;16.90;4.90;;;-2.20;99.90;;;;;;4859502;29;20487;-87
2021/12/10 03:59:08;;;;;;;17.10;5.25;;;-2.30;99.90;;;;;;4854837;29;20144;-85
2021/12/10 04:01:57;;;;;;;17.87;5.50;;;-2.40;99.90;;;;;;4862146;29;20068;-90
2021/12/10 04:04:48;;;;;;;17.13;5.97;;;-2.40;99.90;;;;;;4860391;29;20512;-89
2021/12/10 04:07:37;;;;;;;15.50;6.35;;;-2.50;99.90;;;;;;4863824;29;20049;-87
2021/12/10 04:10:25;;;;;;;12.57;5.85;;;-2.50;99.90;;;;;;4854353;29;20049;-89
2021/12/10 04:13:13;;;;;;;18.10;6.65;;;-2.60;99.90;;;;;;4860353;29;20049;-88
2021/12/10 04:16:00;;;;;;;15.98;6.65;;;-2.70;99.90;;;;;;4861013;29;20068;-89
2021/12/10 04:18:50;;;;;;;18.60;6.47;;;-2.60;99.90;;;;;;4847830;29;20057;-89
2021/12/10 04:21:41;;;;;;;16.30;6.75;;;-2.70;99.90;;;;;;4847810;29;20129;-90
2021/12/10 04:24:32;;;;;;;13.68;6.82;;;-2.80;99.90;;;;;;4862903;29;20057;-87
2021/12/10 04:27:20;;;;;;;17.67;7.32;;;-2.90;99.90;;;;;;4872956;29;20068;-89
2021/12/10 04:30:10;;;;;;;16.95;6.90;;;-2.80;99.90;;;;;;4879471;29;20391;-86
2021/12/10 04:32:58;;;;;;;20.95;8.10;;;-2.90;99.90;;;;;;4844017;29;20046;-87
2021/12/10 04:35:48;;;;;;;16.83;8.18;;;-2.80;99.90;;;;;;4847596;29;20049;-88
2021/12/10 04:38:37;;;;;;;22.52;9.00;;;-2.70;99.90;;;;;;4863304;29;20065;-87
2021/12/10 04:41:26;;;;;;;23.25;8.32;;;-2.70;99.90;;;;;;4862765;29;20360;-88
2021/12/10 04:44:16;;;;;;;21.75;8.48;;;-2.60;99.90;;;;;;4872105;29;20380;-86
2021/12/10 04:47:04;;;;;;;20.17;9.93;;;-2.60;99.90;;;;;;4841086;29;20052;-88
2021/12/10 04:49:54;;;;;;;22.80;9.55;;;-2.60;99.90;;;;;;4857150;29;20054;-88
2021/12/10 04:52:42;;;;;;;23.63;9.45;;;-2.70;99.90;;;;;;4872918;29;20144;-86
2021/12/10 04:55:30;;;;;;;38.50;12.55;;;-2.70;99.90;;;;;;4872791;29;20045;-89
2021/12/10 04:58:17;;;;;;;26.08;10.77;;;-2.60;99.90;;;;;;4867365;29;20034;-87
2021/12/10 05:03:49;;;;;;;;;;;-2.50;99.90;;;;;;5225247;23;20495;31
2021/12/10 05:06:38;;;;;;;26.60;11.18;;;-2.40;99.90;;;;;;4850649;29;19916;-86
2021/12/10 05:09:27;;;;;;;24.05;12.15;;;-2.40;99.90;;;;;;4838494;29;20034;-86
2021/12/10 05:12:14;;;;;;;31.88;13.00;;;-2.40;99.90;;;;;;4840686;29;20038;-88
2021/12/10 05:15:05;;;;;;;27.77;13.35;;;-2.40;99.90;;;;;;4846432;29;20083;-88
2021/12/10 05:17:56;;;;;;;24.75;12.27;;;-2.50;99.90;;;;;;4844785;29;20088;-88
2021/12/10 05:20:48;;;;;;;26.70;12.90;;;-2.60;99.90;;;;;;4845190;29;20048;-86
2021/12/10 05:23:36;;;;;;;25.40;13.18;;;-2.60;99.90;;;;;;4844321;29;20046;-87
2021/12/10 05:26:23;;;;;;;24.23;12.68;;;-2.60;99.90;;;;;;4814953;29;20148;-88
2021/12/10 05:29:11;;;;;;;34.85;13.75;;;-2.70;99.90;;;;;;4837542;29;20054;-87
2021/12/10 05:32:02;;;;;;;37.17;13.75;;;-2.60;99.90;;;;;;4836733;29;20496;-89
2021/12/10 05:56:34;;;;;;;34.75;13.57;;;-2.50;99.90;;;;;;5274456;23;20107;-88
2021/12/10 05:59:22;;;;;;;36.17;13.63;;;-2.50;99.90;;;;;;4847429;29;20042;-86
2021/12/10 06:02:10;;;;;;;27.00;12.80;;;-2.60;99.90;;;;;;4828651;29;20142;-87
2021/12/10 06:04:59;;;;;;;34.38;14.85;;;-2.60;99.90;;;;;;4842721;29;20057;-85
2021/12/10 06:07:47;;;;;;;30.85;14.32;;;-2.60;99.90;;;;;;4824353;29;20140;-88
2021/12/10 06:10:38;;;;;;;31.80;14.32;;;-2.70;99.90;;;;;;4810776;29;20050;-88
2021/12/10 06:13:26;;;;;;;38.47;14.25;;;-2.60;99.90;;;;;;4828070;29;20141;-88
2021/12/10 06:16:15;;;;;;;31.38;14.00;;;-2.70;99.90;;;;;;4837164;29;20057;-87
2021/12/10 06:19:05;;;;;;;30.42;14.38;;;-2.70;99.90;;;;;;4840500;29;20058;-88
2021/12/10 06:21:55;;;;;;;34.60;14.57;;;-2.80;99.90;;;;;;4834497;29;20122;-87
2021/12/10 06:24:43;;;;;;;31.23;13.95;;;-2.80;99.90;;;;;;4843916;29;20117;-88
2021/12/10 06:27:30;;;;;;;32.08;14.75;;;-2.70;99.90;;;;;;4820953;29;20062;-88
2021/12/10 06:30:31;;;;;;;32.22;15.35;;;-2.70;99.90;;;;;;4842892;29;20052;-87
2021/12/10 06:33:25;;;;;;;43.60;16.08;;;-2.70;99.90;;;;;;4834551;29;20066;-87
2021/12/10 06:36:14;;;;;;;38.42;16.52;;;-2.60;99.90;;;;;;4834874;29;20050;-89
2021/12/10 06:39:05;;;;;;;34.17;16.48;;;-2.60;99.90;;;;;;4838847;29;20060;-87
2021/12/10 06:41:54;;;;;;;35.40;15.82;;;-2.50;99.90;;;;;;4842943;29;20117;-89
2021/12/10 07:06:50;;;;;;;42.58;17.23;;;-2.40;99.90;;;;;;4705166;30;20042;-87
2021/12/10 07:10:34;;;;;;;36.78;16.90;;;-2.50;99.90;;;;;;4733857;29;20100;-86
2021/12/10 07:18:28;;;;;;;37.85;15.73;;;-2.50;99.90;;;;;;4762795;30;20051;-90
2021/12/10 07:26:34;;;;;;;;;;;;;;;;;;;;;
2021/12/10 07:50:24;;;;;;;31.05;16.48;;;-1.90;99.90;;;;;;4754212;30;20086;-85
2021/12/10 08:37:54;;;;;;;11.60;6.22;;;-0.20;99.90;;;;;;5783235;23;19922;-87
2021/12/10 08:41:24;;;;;;;;;;;;;;;;;;;;;
2021/12/10 08:45:01;;;;;;;;;;;;;;;;;;;;;
2021/12/10 08:57:37;;;;;;;10.05;5.43;;;0.00;99.90;;;;;;4804735;29;20039;-86
2021/12/10 09:04:43;;;;;;;8.30;4.88;;;0.10;99.90;;;;;;4746986;30;20044;-84
2021/12/10 09:08:54;;;;;;;9.52;5.50;;;0.10;99.90;;;;;;4741970;30;20072;-88
2021/12/10 09:29:08;;;;;;;;;;;;;;;;;;;;;
2021/12/10 09:33:04;;;;;;;11.45;4.97;;;0.40;99.90;;;;;;4876648;29;20041;-88
2021/12/10 09:49:47;;;;;;;12.23;4.88;;;0.90;99.90;;;;;;4822176;29;20682;-84
2021/12/10 09:56:28;;;;;;;7.28;3.88;;;0.90;99.90;;;;;;5592354;23;20064;-88
2021/12/10 10:11:34;;;;;;;;;;;;;;;;;;;;;
2021/12/10 10:19:05;;;;;;;;;;;;;;;;;;;;;
2021/12/10 10:27:27;;;;;;;6.60;3.00;;;1.40;99.90;;;;;;4747091;30;20066;-86
2021/12/10 10:30:42;;;;;;;5.30;3.20;;;1.40;99.90;;;;;;4740873;29;20059;-89
2021/12/10 10:34:09;;;;;;;8.02;3.88;;;1.40;99.90;;;;;;4821643;29;20370;-87
2021/12/10 10:37:33;;;;;;;6.95;3.20;;;1.50;99.90;;;;;;4803834;29;20058;-87
2021/12/10 10:40:44;;;;;;;10.23;2.80;;;1.50;99.90;;;;;;4764670;30;20055;-86
2021/12/10 10:49:00;;;;;;;5.72;2.63;;;1.60;99.90;;;;;;4717524;30;20041;-88
2021/12/10 10:52:14;;;;;;;4.75;2.58;;;1.60;99.90;;;;;;4743207;29;20091;-86
2021/12/10 10:59:26;;;;;;;13.60;5.60;;;1.60;99.90;;;;;;4807033;29;20055;-87
2021/12/10 11:03:02;;;;;;;;;;;;;;;;;;;;;
2021/12/10 11:05:57;;;;;;;8.32;3.22;;;1.70;99.90;;;;;;4822780;29;20039;-87
2021/12/10 11:22:15;;;;;;;;;;;;;;;;;;;;;
2021/12/10 11:30:21;;;;;;;2.00;1.40;;;1.20;99.90;;;;;;4718754;30;20503;-87
2021/12/10 11:38:10;;;;;;;2.92;1.80;;;0.90;99.90;;;;;;4721299;30;20451;-87
2021/12/10 11:49:23;;;;;;;6.18;2.38;;;0.70;99.90;;;;;;4636193;30;20115;-86
2021/12/10 13:48:41;;;;;;;8.30;4.45;;;0.80;99.90;;;;;;4487531;23;19970;-87
2021/12/10 13:53:03;;;;;;;17.15;5.47;;;0.80;99.90;;;;;;4804895;29;20046;-88
2021/12/10 13:57:21;;;;;;;;;;;;;;;;;;;;;
2021/12/10 14:01:26;;;;;;;;;;;;;;;;;;;;;
2021/12/10 14:04:42;;;;;;;4.43;2.90;;;1.00;99.90;;;;;;4829237;29;20143;-87
2021/12/10 14:08:21;;;;;;;6.45;3.63;;;1.10;99.90;;;;;;4837115;29;20053;-89
2021/12/10 14:20:24;;;;;;;;;;;;;;;;;;;;;
2021/12/10 14:23:46;;;;;;;5.33;2.90;;;1.30;99.90;;;;;;4848349;29;20053;-85
2021/12/10 14:27:30;;;;;;;6.13;3.88;;;1.40;99.90;;;;;;4840731;29;20189;-87
2021/12/10 14:30:48;;;;;;;6.22;2.90;;;1.40;99.90;;;;;;4884332;29;20377;-86
2021/12/10 14:33:45;;;;;;;5.88;3.45;;;1.30;99.90;;;;;;4896843;29;20044;-84
2021/12/10 14:37:29;;;;;;;4.47;2.92;;;1.30;99.90;;;;;;4900526;29;20036;-81
2021/12/10 14:45:05;;;;;;;6.13;3.67;;;1.20;99.90;;;;;;4905728;29;20308;-83
2021/12/10 14:52:33;;;;;;;6.07;3.17;;;1.20;99.90;;;;;;4840041;29;20046;-83
2021/12/10 15:09:24;;;;;;;3.22;2.50;;;1.20;99.90;;;;;;4802122;29;20049;-83
2021/12/10 15:21:51;;;;;;;3.67;3.17;;;1.20;99.90;;;;;;4783878;29;20050;-82
2021/12/10 15:34:25;;;;;;;4.28;3.50;;;1.20;99.90;;;;;;4763078;29;20040;-81
2021/12/10 15:37:31;;;;;;;4.82;4.32;;;1.20;99.90;;;;;;4763729;30;20058;-84
2021/12/10 15:40:48;;;;;;;5.78;4.40;;;1.20;99.90;;;;;;4892235;29;20114;-84
2021/12/10 15:44:03;;;;;;;7.07;4.75;;;1.20;99.90;;;;;;4911751;29;20060;-85
2021/12/10 15:46:58;;;;;;;6.45;4.97;;;1.20;99.90;;;;;;4893247;29;20079;-85
2021/12/10 15:49:48;;;;;;;6.97;5.13;;;1.20;99.90;;;;;;4899791;29;20105;-86
2021/12/10 15:52:38;;;;;;;7.72;5.28;;;1.20;99.90;;;;;;4912564;29;20044;-85
2021/12/10 15:55:27;;;;;;;7.47;5.78;;;1.10;99.90;;;;;;4889865;29;20072;-81
2021/12/10 15:58:25;;;;;;;7.80;6.43;;;1.20;99.90;;;;;;4900419;29;20059;-84
2021/12/10 16:01:17;;;;;;;7.10;5.70;;;1.10;99.90;;;;;;4897609;29;20048;-84
2021/12/10 16:04:17;;;;;;;9.18;6.47;;;1.20;99.90;;;;;;4902221;29;20066;-84
2021/12/10 16:07:19;;;;;;;7.78;6.38;;;1.20;99.90;;;;;;4908093;29;20358;-84
2021/12/10 16:10:22;;;;;;;8.43;7.25;;;1.20;99.90;;;;;;4905625;29;20553;-82
2021/12/10 16:13:16;;;;;;;10.63;7.57;;;1.20;99.90;;;;;;4903980;29;20425;-81
2021/12/10 16:16:06;;;;;;;9.82;8.38;;;1.20;99.90;;;;;;4901991;29;20059;-84
2021/12/10 16:19:23;;;;;;;10.02;8.25;;;1.20;99.90;;;;;;4901270;29;20054;-84
2021/12/10 16:22:13;;;;;;;12.52;9.00;;;1.20;99.90;;;;;;4895578;29;20076;-84
2021/12/10 16:25:07;;;;;;;12.60;8.60;;;1.30;99.90;;;;;;4889908;29;20139;-86
2021/12/10 16:27:56;;;;;;;10.40;8.15;;;1.20;99.90;;;;;;4896879;29;20458;-80
2021/12/10 16:30:53;;;;;;;9.85;8.32;;;1.30;99.90;;;;;;4899213;29;20040;-81
2021/12/10 16:33:43;;;;;;;11.00;8.50;;;1.30;99.90;;;;;;4905081;29;20056;-81
2021/12/10 16:36:32;;;;;;;9.60;8.45;;;1.30;99.90;;;;;;4886639;29;20052;-80
2021/12/10 16:39:19;;;;;;;11.82;8.38;;;1.30;99.90;;;;;;4904687;29;20087;-81
2021/12/10 16:42:10;;;;;;;10.60;8.63;;;1.30;99.90;;;;;;4914638;29;20481;-81
2021/12/10 16:44:59;;;;;;;18.15;9.80;;;1.30;99.90;;;;;;4890778;29;20060;-81
2021/12/10 16:47:47;;;;;;;11.63;8.65;;;1.30;99.90;;;;;;4898342;29;20048;-82
2021/12/10 16:50:39;;;;;;;10.27;8.73;;;1.30;99.90;;;;;;4899799;29;20426;-84
2021/12/10 16:53:39;;;;;;;10.65;8.13;;;1.40;99.90;;;;;;4915054;29;20048;-82
2021/12/10 16:56:30;;;;;;;10.80;8.52;;;1.40;99.90;;;;;;4913872;29;20074;-82
2021/12/10 16:59:20;;;;;;;8.50;7.45;;;1.40;99.90;;;;;;4901848;29;20543;-81
2021/12/10 17:02:19;;;;;;;9.65;7.30;;;1.40;99.90;;;;;;4909947;29;20174;-81
2021/12/10 17:05:12;;;;;;;8.57;7.15;;;1.40;99.90;;;;;;4900072;29;20134;-80
2021/12/10 17:08:08;;;;;;;11.77;8.73;;;1.50;99.90;;;;;;4900283;29;20730;-81
2021/12/10 17:11:13;;;;;;;10.27;7.25;;;1.50;99.90;;;;;;4900363;29;20053;-81
2021/12/10 17:14:08;;;;;;;7.32;5.88;;;1.50;99.90;;;;;;4896979;29;20051;-82
2021/12/10 17:17:06;;;;;;;12.82;7.00;;;1.60;99.90;;;;;;4900820;29;20052;-81
2021/12/10 17:20:12;;;;;;;;;;;1.60;99.90;;;;;;4901738;29;20048;-81
2021/12/10 17:23:06;;;;;;;10.38;6.85;;;1.60;99.90;;;;;;4891989;29;20018;-81
2021/12/10 17:26:08;;;;;;;7.90;6.68;;;1.60;99.90;;;;;;4914190;29;20063;-81
2021/12/10 17:29:06;;;;;;;9.05;6.82;;;1.60;99.90;;;;;;4899570;29;20048;-81
2021/12/10 17:32:04;;;;;;;10.27;7.28;;;1.60;99.90;;;;;;4901744;29;20056;-83
2021/12/10 17:35:01;;;;;;;9.23;6.95;;;1.60;99.90;;;;;;4905928;29;20143;-81
2021/12/10 17:37:54;;;;;;;10.75;7.10;;;1.60;99.90;;;;;;4907018;29;20048;-81
2021/12/10 17:40:50;;;;;;;8.15;6.50;;;1.60;99.90;;;;;;4901586;29;20059;-83
2021/12/10 17:43:48;;;;;;;10.00;7.10;;;1.70;99.90;;;;;;4914324;29;20115;-83
2021/12/10 17:46:45;;;;;;;9.55;6.75;;;1.70;99.90;;;;;;4886921;29;20052;-81
2021/12/10 17:49:43;;;;;;;8.98;6.72;;;1.70;99.90;;;;;;4914158;29;20135;-80
2021/12/10 17:52:37;;;;;;;10.00;8.18;;;1.70;99.90;;;;;;4899480;29;20056;-82
2021/12/10 17:55:29;;;;;;;8.70;6.57;;;1.70;99.90;;;;;;4897823;29;20239;-82
2021/12/10 17:58:20;;;;;;;16.65;9.75;;;1.60;99.90;;;;;;4893646;29;20067;-82
2021/12/10 18:01:30;;;;;;;11.05;8.10;;;1.60;99.90;;;;;;4907976;29;20074;-81
2021/12/10 18:04:18;;;;;;;9.98;7.20;;;1.60;99.90;;;;;;4900903;29;20048;-82
2021/12/10 18:07:09;;;;;;;9.77;6.75;;;1.60;99.90;;;;;;4888779;29;20063;-81
2021/12/10 18:09:57;;;;;;;9.13;6.32;;;1.60;99.90;;;;;;4899287;29;20059;-81
2021/12/10 18:12:49;;;;;;;9.40;6.15;;;1.60;99.90;;;;;;4912597;29;20070;-82
2021/12/10 18:15:42;;;;;;;7.85;6.00;;;1.60;99.90;;;;;;4899831;29;20068;-81
2021/12/10 18:18:34;;;;;;;7.72;6.18;;;1.70;99.90;;;;;;4913196;29;20059;-81
2021/12/10 18:21:26;;;;;;;11.10;8.10;;;1.70;99.90;;;;;;4899127;29;20135;-81
2021/12/10 18:24:20;;;;;;;5.33;4.53;;;1.70;99.90;;;;;;4899071;29;20147;-81
2021/12/10 18:27:09;;;;;;;6.05;5.15;;;1.70;99.90;;;;;;4899281;29;20412;-83
2021/12/10 18:30:01;;;;;;;8.68;6.60;;;1.70;99.90;;;;;;4867111;29;20063;-82
2021/12/10 18:32:49;;;;;;;;;;;1.60;99.90;;;;;;4913172;29;20048;-82
2021/12/10 18:35:40;;;;;;;12.85;6.82;;;1.60;99.90;;;;;;4899381;29;20209;-81
2021/12/10 18:38:28;;;;;;;7.90;6.10;;;1.60;99.90;;;;;;4899340;29;20052;-82
2021/12/10 18:41:17;;;;;;;8.40;6.65;;;1.60;99.90;;;;;;4913418;29;20060;-80
2021/12/10 18:44:10;;;;;;;9.85;7.15;;;1.60;99.90;;;;;;4898921;29;20056;-81
2021/12/10 18:46:59;;;;;;;11.82;7.38;;;1.60;99.90;;;;;;4914149;29;20457;-82
2021/12/10 18:49:47;;;;;;;9.02;7.03;;;1.60;99.90;;;;;;4899934;29;20052;-81
2021/12/10 18:52:34;;;;;;;8.80;6.88;;;1.60;99.90;;;;;;4911617;29;20485;-81
2021/12/10 18:55:27;;;;;;;9.20;7.28;;;1.60;99.90;;;;;;4893143;29;20489;-81
2021/12/10 18:58:18;;;;;;;9.45;7.63;;;1.60;99.90;;;;;;4902249;29;20087;-82
2021/12/10 19:01:17;;;;;;;9.95;7.68;;;1.60;99.90;;;;;;4917956;29;20142;-83
2021/12/10 19:04:16;;;;;;;15.98;9.90;;;1.60;99.90;;;;;;4904113;29;20131;-81
2021/12/10 19:07:23;;;;;;;9.93;8.73;;;1.60;99.90;;;;;;4904016;29;20051;-82
2021/12/10 19:10:21;;;;;;;9.05;7.47;;;1.60;99.90;;;;;;4892032;29;20052;-80
2021/12/10 19:13:16;;;;;;;7.95;6.90;;;1.70;99.90;;;;;;4908667;29;20045;-81
2021/12/10 19:16:14;;;;;;;10.77;6.70;;;1.70;99.90;;;;;;4903561;29;20044;-81
2021/12/10 19:19:11;;;;;;;9.85;6.80;;;1.60;99.90;;;;;;4931513;29;20067;-81
2021/12/10 19:22:05;;;;;;;7.68;5.93;;;1.70;99.90;;;;;;4919510;29;20046;-81
2021/12/10 19:25:12;;;;;;;6.60;5.20;;;1.70;99.90;;;;;;4917711;29;20339;-80
2021/12/10 19:28:10;;;;;;;7.47;5.20;;;1.60;99.90;;;;;;4907990;29;20044;-82
2021/12/10 19:31:12;;;;;;;6.97;5.07;;;1.70;99.90;;;;;;4910752;29;20052;-82
2021/12/10 19:34:08;;;;;;;9.38;6.95;;;1.70;99.90;;;;;;4895376;29;20151;-82
2021/12/10 19:37:18;;;;;;;12.45;5.90;;;1.70;99.90;;;;;;4900824;29;20201;-83
2021/12/10 19:40:11;;;;;;;6.65;4.80;;;1.60;99.90;;;;;;4905250;29;20132;-82
2021/12/10 19:43:17;;;;;;;8.20;5.10;;;1.60;99.90;;;;;;4902377;29;20063;-83
2021/12/10 19:46:13;;;;;;;8.15;5.35;;;1.60;99.90;;;;;;4916144;29;20155;-81
2021/12/10 19:49:07;;;;;;;10.65;4.95;;;1.60;99.90;;;;;;4895815;29;20259;-82
2021/12/10 19:52:08;;;;;;;8.90;6.45;;;1.60;99.90;;;;;;4896214;29;20617;-82
2021/12/10 19:55:15;;;;;;;13.45;9.15;;;1.60;99.90;;;;;;4900514;29;20064;-84
2021/12/10 19:58:11;;;;;;;14.95;7.70;;;1.60;99.90;;;;;;4896772;29;20066;-84
2021/12/10 20:01:13;;;;;;;12.43;7.70;;;1.60;99.90;;;;;;4892680;29;20059;-83
2021/12/10 20:04:02;;;;;;;9.85;6.80;;;1.60;99.90;;;;;;4886885;29;20183;-82
2021/12/10 20:06:57;;;;;;;15.93;7.88;;;1.60;99.90;;;;;;4892976;29;20075;-82
2021/12/10 20:09:58;;;;;;;9.68;6.45;;;1.60;99.90;;;;;;4889588;29;20052;-83
2021/12/10 20:12:51;;;;;;;9.40;5.18;;;1.60;99.90;;;;;;4895386;29;20063;-81
2021/12/10 20:15:48;;;;;;;8.52;6.43;;;1.60;99.90;;;;;;4889823;29;20065;-80
2021/12/10 20:18:46;;;;;;;7.32;5.38;;;1.60;99.90;;;;;;4898867;29;20051;-82
2021/12/10 20:21:40;;;;;;;8.18;5.60;;;1.50;99.90;;;;;;4887235;29;20383;-82
2021/12/10 20:24:34;;;;;;;5.35;4.85;;;1.50;99.90;;;;;;4897018;29;20052;-83
2021/12/10 20:27:44;;;;;;;8.18;5.78;;;1.50;99.90;;;;;;4897516;29;20065;-83
2021/12/10 20:30:40;;;;;;;8.93;6.03;;;1.50;99.90;;;;;;4898412;29;20048;-82
2021/12/10 20:33:39;;;;;;;9.30;6.40;;;1.50;99.90;;;;;;4904614;29;20052;-83
2021/12/10 20:36:52;;;;;;;7.65;6.35;;;1.50;99.90;;;;;;4897989;29;20176;-83
2021/12/10 20:39:52;;;;;;;7.20;6.10;;;1.50;99.90;;;;;;4898080;29;20052;-82
2021/12/10 20:42:44;;;;;;;7.43;5.85;;;1.40;99.90;;;;;;4892458;29;20053;-82
2021/12/10 20:45:39;;;;;;;10.30;5.63;;;1.40;99.90;;;;;;4894944;29;20057;-82
2021/12/10 20:48:31;;;;;;;8.93;5.95;;;1.40;99.90;;;;;;4924049;29;20062;-83
2021/12/10 20:51:31;;;;;;;7.20;6.43;;;1.50;99.90;;;;;;4910818;29;20040;-83
2021/12/10 20:54:25;;;;;;;8.82;6.03;;;1.50;99.90;;;;;;4919014;29;20097;-83
2021/12/10 20:57:35;;;;;;;6.47;5.68;;;1.50;99.90;;;;;;4902420;29;20080;-83
2021/12/10 21:00:43;;;;;;;9.80;6.05;;;1.50;99.90;;;;;;4916084;29;20520;-82
2021/12/10 21:03:55;;;;;;;6.03;5.38;;;1.50;99.90;;;;;;4904503;29;20055;-82
2021/12/10 21:06:49;;;;;;;6.57;5.22;;;1.50;99.90;;;;;;4902111;29;20469;-82
2021/12/10 21:09:43;;;;;;;7.80;5.80;;;1.50;99.90;;;;;;4913469;29;20048;-82
2021/12/10 21:12:36;;;;;;;4.78;4.20;;;1.50;99.90;;;;;;4900433;29;20414;-83
2021/12/10 21:15:52;;;;;;;6.57;5.20;;;1.50;99.90;;;;;;4916214;29;20115;-82
2021/12/10 21:18:48;;;;;;;9.25;5.53;;;1.50;99.90;;;;;;4899627;29;20071;-81
2021/12/10 21:21:45;;;;;;;6.80;5.03;;;1.50;99.90;;;;;;4913104;29;20488;-81
2021/12/10 21:24:38;;;;;;;6.90;4.78;;;1.50;99.90;;;;;;4887956;29;20200;-81
2021/12/10 21:27:36;;;;;;;7.80;4.35;;;1.50;99.90;;;;;;4901519;29;20060;-81
2021/12/10 21:30:36;;;;;;;8.32;5.95;;;1.50;99.90;;;;;;4900981;29;20051;-84
2021/12/10 21:33:44;;;;;;;6.97;4.82;;;1.50;99.90;;;;;;4899251;29;20099;-84
2021/12/10 21:39:57;;;;;;;4.75;4.25;;;1.50;99.90;;;;;;4915078;29;20048;-81
2021/12/10 21:42:50;;;;;;;6.13;4.97;;;1.50;99.90;;;;;;4900579;29;20055;-81
2021/12/10 21:45:51;;;;;;;9.25;5.20;;;1.50;99.90;;;;;;4901014;29;20351;-79
2021/12/10 21:48:46;;;;;;;7.57;4.80;;;1.50;99.90;;;;;;4900058;29;20056;-82
2021/12/10 21:51:47;;;;;;;6.88;5.22;;;1.50;99.90;;;;;;4914203;29;20056;-82
2021/12/10 21:54:43;;;;;;;8.32;5.95;;;1.50;99.90;;;;;;4901803;29;20044;-80
2021/12/10 21:57:40;;;;;;;6.60;5.20;;;1.40;99.90;;;;;;4900952;29;20044;-83
2021/12/10 22:00:37;;;;;;;6.47;5.07;;;1.50;99.90;;;;;;4915218;29;20150;-81
2021/12/10 22:03:36;;;;;;;8.32;6.57;;;1.40;99.90;;;;;;4913910;29;20179;-82
2021/12/10 22:06:31;;;;;;;9.07;6.13;;;1.50;99.90;;;;;;4902208;29;20054;-83
2021/12/10 22:09:32;;;;;;;7.30;5.68;;;1.50;99.90;;;;;;4913037;29;20080;-81
2021/12/10 22:12:30;;;;;;;6.28;5.40;;;1.50;99.90;;;;;;4913449;29;20064;-83
2021/12/10 22:15:41;;;;;;;7.78;5.35;;;1.40;99.90;;;;;;4926496;29;20153;-82
2021/12/10 22:18:49;;;;;;;7.18;5.05;;;1.40;99.90;;;;;;4938839;29;20224;-83
2021/12/10 22:21:46;;;;;;;7.93;6.30;;;1.40;99.90;;;;;;4920383;29;20111;-83
2021/12/10 22:24:38;;;;;;;8.15;6.18;;;1.40;99.90;;;;;;4915334;29;20077;-83
2021/12/10 22:27:30;;;;;;;7.07;5.68;;;1.40;99.90;;;;;;4891372;29;20467;-84